createdAt,value
2022-10-24T00:04:45.492Z,11.75
2022-10-24T00:09:48.888Z,13.38
2022-10-24T00:14:52.195Z,13.80
2022-10-24T00:19:55.610Z,11.52
2022-10-24T00:24:58.965Z,13.20
2022-10-24T00:30:03.717Z,13.63
2022-10-24T00:35:07.561Z,13.45
2022-10-24T00:40:16.291Z,12.73
2022-10-24T00:45:44.881Z,14.90
2022-10-24T00:50:51.430Z,13.95
2022-10-24T00:55:57.992Z,13.10
2022-10-24T01:01:02.313Z,19.30
2022-10-24T01:06:33.384Z,17.75
2022-10-24T01:11:43.099Z,15.43
2022-10-24T01:16:51.286Z,15.35
2022-10-24T01:22:01.453Z,17.50
2022-10-24T01:27:08.488Z,20.50
2022-10-24T01:32:34.090Z,16.90
2022-10-24T01:37:41.641Z,17.23
2022-10-24T01:42:49.550Z,15.02
2022-10-24T01:47:56.014Z,15.30
2022-10-24T01:53:01.067Z,15.05
2022-10-24T01:58:04.659Z,15.90
2022-10-24T02:03:32.466Z,14.93
2022-10-24T02:08:42.654Z,13.65
2022-10-24T02:14:03.055Z,15.82
2022-10-24T02:19:06.646Z,17.00
2022-10-24T02:24:40.921Z,18.90
2022-10-24T02:30:01.815Z,19.17
2022-10-24T02:35:08.791Z,18.27
2022-10-24T02:40:15.595Z,17.38
2022-10-24T02:45:21.260Z,12.18
2022-10-24T02:50:25.449Z,14.57
2022-10-24T02:55:29.131Z,19.88
2022-10-24T03:00:32.602Z,15.93
2022-10-24T03:05:36.155Z,11.38
2022-10-24T03:10:39.504Z,19.48
2022-10-24T03:15:42.956Z,13.00
2022-10-24T03:20:46.866Z,14.85
2022-10-24T03:25:50.382Z,16.83
2022-10-24T03:30:53.893Z,13.00
2022-10-24T03:35:57.924Z,16.90
2022-10-24T03:41:01.253Z,16.70
2022-10-24T03:46:04.699Z,20.00
2022-10-24T03:51:08.032Z,18.20
2022-10-24T03:56:11.225Z,18.73
2022-10-24T04:01:14.814Z,21.42
2022-10-24T04:06:18.423Z,14.65
2022-10-24T04:11:21.573Z,15.73
2022-10-24T04:16:24.687Z,18.05
2022-10-24T04:21:28.306Z,17.55
2022-10-24T04:26:31.680Z,17.50
2022-10-24T04:31:35.130Z,19.63
2022-10-24T04:36:38.400Z,20.20
2022-10-24T04:41:41.809Z,16.00
2022-10-24T04:46:47.969Z,22.85
2022-10-24T04:51:53.938Z,22.98
2022-10-24T04:56:58.182Z,15.30
2022-10-24T05:02:01.673Z,14.73
2022-10-24T05:07:05.343Z,17.40
2022-10-24T05:12:08.557Z,19.08
2022-10-24T05:17:11.957Z,14.38
2022-10-24T05:22:16.292Z,18.75
2022-10-24T05:27:21.343Z,22.42
2022-10-24T05:32:25.416Z,22.55
2022-10-24T05:42:38.783Z,16.25
2022-10-24T05:47:42.703Z,17.58
2022-10-24T05:52:47.327Z,11.40
2022-10-24T05:57:50.931Z,12.02
2022-10-24T06:02:55.866Z,26.90
2022-10-24T06:08:00.004Z,20.30
2022-10-24T06:13:05.047Z,22.80
2022-10-24T06:18:09.179Z,12.65
2022-10-24T06:23:12.799Z,12.75
2022-10-24T06:28:16.188Z,11.10
2022-10-24T06:33:19.399Z,16.55
2022-10-24T06:38:22.758Z,20.02
2022-10-24T06:43:26.459Z,21.77
2022-10-24T06:48:29.908Z,12.15
2022-10-24T06:53:34.130Z,12.13
2022-10-24T06:58:38.534Z,27.70
2022-10-24T07:03:43.615Z,11.55
2022-10-24T07:08:47.708Z,13.80
2022-10-24T07:13:52.528Z,19.45
2022-10-24T07:18:57.426Z,21.67
2022-10-24T07:24:01.130Z,13.77
2022-10-24T07:29:04.803Z,15.55
2022-10-24T07:34:09.479Z,14.57
2022-10-24T07:39:14.169Z,15.50
2022-10-24T07:44:17.849Z,18.05
2022-10-24T07:49:21.235Z,15.95
2022-10-24T07:54:24.985Z,11.77
2022-10-24T07:59:41.315Z,16.10
2022-10-24T08:04:45.956Z,16.88
2022-10-24T08:09:49.753Z,18.73
2022-10-24T08:14:53.537Z,15.25
2022-10-24T08:19:56.762Z,12.90
2022-10-24T08:25:01.187Z,16.35
2022-10-24T08:30:06.760Z,17.42
2022-10-24T08:35:10.838Z,12.45
2022-10-24T08:40:19.773Z,21.40
2022-10-24T08:45:30.262Z,11.77
2022-10-24T08:50:35.882Z,16.67
2022-10-24T08:55:50.048Z,15.50
2022-10-24T09:00:58.166Z,20.08
2022-10-24T09:06:06.588Z,16.17
2022-10-24T09:11:15.154Z,16.23
2022-10-24T09:16:23.194Z,26.13
2022-10-24T09:21:26.900Z,43.35
2022-10-24T09:26:33.357Z,21.33
2022-10-24T09:31:37.647Z,19.38
2022-10-24T09:36:41.045Z,12.20
2022-10-24T09:41:46.870Z,16.35
2022-10-24T09:46:50.055Z,16.17
2022-10-24T09:52:22.968Z,19.13
2022-10-24T09:57:28.096Z,10.45
2022-10-24T10:02:36.967Z,20.55
2022-10-24T10:07:45.328Z,14.63
2022-10-24T10:13:03.239Z,10.32
2022-10-24T10:18:29.259Z,13.63
2022-10-24T10:23:40.138Z,12.05
2022-10-24T10:28:56.048Z,15.73
2022-10-24T10:34:28.668Z,9.98
2022-10-24T10:40:01.937Z,20.30
2022-10-24T10:45:34.425Z,11.35
2022-10-24T10:50:48.790Z,8.30
2022-10-24T10:56:20.084Z,10.52
2022-10-24T11:01:43.493Z,13.20
2022-10-24T11:07:07.177Z,15.35
2022-10-24T11:12:23.436Z,9.95
2022-10-24T11:17:42.357Z,17.25
2022-10-24T11:23:14.233Z,9.10
2022-10-24T11:28:27.196Z,15.00
2022-10-24T11:33:53.704Z,11.27
2022-10-24T11:39:14.723Z,10.02
2022-10-24T11:44:39.248Z,11.45
2022-10-24T11:49:50.867Z,10.77
2022-10-24T11:55:00.105Z,10.07
2022-10-24T12:00:04.887Z,15.50
2022-10-24T12:05:22.461Z,16.80
2022-10-24T12:10:47.774Z,10.35
2022-10-24T12:16:13.907Z,12.43
2022-10-24T12:21:26.462Z,13.20
2022-10-24T12:26:31.793Z,19.05
2022-10-24T12:31:37.959Z,14.02
2022-10-24T12:37:22.870Z,15.88
2022-10-24T12:42:26.171Z,14.85
2022-10-24T12:47:42.677Z,16.02
2022-10-24T12:52:46.798Z,14.65
2022-10-24T12:57:51.360Z,23.25
2022-10-24T13:02:58.052Z,22.05
2022-10-24T13:08:29.219Z,14.03
2022-10-24T13:13:48.968Z,20.27
2022-10-24T13:24:18.884Z,25.70
2022-10-24T13:29:21.998Z,12.98
2022-10-24T13:34:28.132Z,23.00
2022-10-24T13:39:38.738Z,21.45
2022-10-24T13:49:58.022Z,25.40
2022-10-24T13:55:24.659Z,24.83
2022-10-24T14:00:37.162Z,20.50
2022-10-24T14:10:55.265Z,18.77
2022-10-24T14:16:06.659Z,24.52
2022-10-24T14:21:22.259Z,19.95
2022-10-24T14:26:26.103Z,23.45
2022-10-24T14:31:32.528Z,22.65
2022-10-24T14:36:39.520Z,26.23
2022-10-24T14:41:43.214Z,19.92
2022-10-24T14:47:00.915Z,26.42
2022-10-24T14:52:07.718Z,28.25
2022-10-24T14:57:21.032Z,19.85
2022-10-24T15:02:30.169Z,23.52
2022-10-24T15:07:44.925Z,25.05
2022-10-24T15:18:08.349Z,34.25
2022-10-24T15:23:22.385Z,18.90
2022-10-24T15:28:57.832Z,37.40
2022-10-24T15:34:01.081Z,27.83
2022-10-24T15:39:12.228Z,27.02
2022-10-24T15:44:22.267Z,24.20
2022-10-24T15:49:25.726Z,22.15
2022-10-24T15:54:29.358Z,29.08
2022-10-24T15:59:33.399Z,28.50
2022-10-24T16:04:36.859Z,31.42
2022-10-24T16:09:40.516Z,21.77
2022-10-24T16:14:43.815Z,26.20
2022-10-24T16:19:48.353Z,20.95
2022-10-24T16:24:54.988Z,31.23
2022-10-24T16:29:58.378Z,29.73
2022-10-24T16:35:01.669Z,20.90
2022-10-24T16:40:06.369Z,31.10
2022-10-24T16:45:10.068Z,31.48
2022-10-24T16:50:20.947Z,34.17
2022-10-24T16:55:24.360Z,29.98
2022-10-24T17:00:28.668Z,35.08
2022-10-24T17:05:32.153Z,36.30
2022-10-24T17:10:35.907Z,23.73
2022-10-24T17:15:46.260Z,44.17
2022-10-24T17:20:50.230Z,38.25
2022-10-24T17:25:53.734Z,44.53
2022-10-24T17:30:57.239Z,34.08
2022-10-24T17:36:00.889Z,38.00
2022-10-24T17:41:35.975Z,30.30
2022-10-24T17:46:39.976Z,39.03
2022-10-24T17:51:45.128Z,43.05
2022-10-24T17:56:51.026Z,40.08
2022-10-24T18:01:54.568Z,40.72
2022-10-24T18:06:58.333Z,44.92
2022-10-24T18:12:03.894Z,26.50
2022-10-24T18:17:07.421Z,35.33
2022-10-24T18:22:13.108Z,31.63
2022-10-24T18:27:20.248Z,37.85
2022-10-24T18:32:23.739Z,35.35
2022-10-24T18:37:28.192Z,38.67
2022-10-24T18:43:06.360Z,30.42
2022-10-24T18:48:13.137Z,32.65
2022-10-24T18:53:27.368Z,30.48
2022-10-24T18:58:31.919Z,30.55
2022-10-24T19:03:38.719Z,28.83
2022-10-24T19:08:44.651Z,37.65
2022-10-24T19:13:48.207Z,50.92
2022-10-24T19:18:56.452Z,48.95
2022-10-24T19:24:00.614Z,42.28
2022-10-24T19:29:05.829Z,46.85
2022-10-24T19:34:10.462Z,41.83
2022-10-24T19:39:16.918Z,33.80
2022-10-24T19:44:22.184Z,33.00
2022-10-24T19:49:30.851Z,46.10
2022-10-24T19:54:34.818Z,37.88
2022-10-24T19:59:43.199Z,45.60
2022-10-24T20:04:50.802Z,47.92
2022-10-24T20:09:54.459Z,33.83
2022-10-24T20:14:59.022Z,42.90
2022-10-24T20:20:12.810Z,41.28
2022-10-24T20:25:16.737Z,32.08
2022-10-24T20:30:20.513Z,41.88
2022-10-24T20:40:34.935Z,42.00
2022-10-24T20:45:42.901Z,35.42
2022-10-24T20:50:46.756Z,39.30
2022-10-24T20:55:50.275Z,52.42
2022-10-24T21:00:54.444Z,43.22
2022-10-24T21:06:05.104Z,33.60
2022-10-24T21:11:13.878Z,44.88
2022-10-24T21:16:17.242Z,42.35
2022-10-24T21:21:21.746Z,37.17
2022-10-24T21:26:25.464Z,46.78
2022-10-24T21:31:32.757Z,38.28
2022-10-24T21:36:38.929Z,39.58
2022-10-24T21:41:42.919Z,34.63
2022-10-24T21:46:46.890Z,35.53
2022-10-24T21:51:53.181Z,37.75
2022-10-24T21:56:56.617Z,36.80
2022-10-24T22:02:00.403Z,36.95
2022-10-24T22:07:16.400Z,31.80
2022-10-24T22:12:21.365Z,40.30
2022-10-24T22:17:24.691Z,42.10
2022-10-24T22:22:30.787Z,22.80
2022-10-24T22:27:34.502Z,43.78
2022-10-24T22:32:38.717Z,36.17
2022-10-24T22:37:44.672Z,38.25
2022-10-24T22:42:48.823Z,33.78
2022-10-24T22:47:55.378Z,37.35
2022-10-24T22:52:59.345Z,35.13
2022-10-24T22:58:05.131Z,32.35
2022-10-24T23:03:37.834Z,41.45
2022-10-24T23:08:45.863Z,32.10
2022-10-24T23:13:53.647Z,30.40
2022-10-24T23:18:57.346Z,38.72
2022-10-24T23:24:01.736Z,32.03
2022-10-24T23:29:29.063Z,37.50
2022-10-24T23:34:35.627Z,31.20
2022-10-24T23:39:42.049Z,31.20
2022-10-24T23:44:45.852Z,40.58
2022-10-24T23:50:07.247Z,31.75
2022-10-24T23:55:16.974Z,36.05
